Time;durP1;ratioP1;P1;durP2;ratioP2;P2;SDS_P1;SDS_P2;PMS_P1;PMS_P2;Temp;Humidity;BMP_temperature;BMP_pressure;BME280_temperature;BME280_humidity;BME280_pressure;Samples;Min_cycle;Max_cycle;Signal;HPM_P1;HPM_P2
2023/08/19 00:00:15;;;;;;;;;13.40;13.40;;;;;;;;5029201;28;8979;-79
2023/08/19 00:02:44;;;;;;;;;13.80;12.00;;;;;;;;5029894;28;8840;-80
2023/08/19 00:05:12;;;;;;;;;10.00;8.20;;;;;;;;5029872;28;8975;-79
2023/08/19 00:07:39;;;;;;;;;12.80;12.80;;;;;;;;5029618;28;8864;-79
2023/08/19 00:10:08;;;;;;;;;11.20;11.20;;;;;;;;5029545;28;8890;-78
2023/08/19 00:12:35;;;;;;;;;15.40;13.80;;;;;;;;5029759;28;9666;-79
2023/08/19 00:15:02;;;;;;;;;12.00;12.00;;;;;;;;5030912;28;8852;-79
2023/08/19 00:17:29;;;;;;;;;12.80;12.40;;;;;;;;5032088;28;8848;-80
2023/08/19 00:19:58;;;;;;;;;11.80;10.40;;;;;;;;5033831;28;8870;-80
2023/08/19 00:22:28;;;;;;;;;11.20;10.40;;;;;;;;5033471;28;8852;-78
2023/08/19 00:24:55;;;;;;;;;15.00;13.80;;;;;;;;5034287;28;8876;-80
2023/08/19 00:27:23;;;;;;;;;14.80;13.40;;;;;;;;5033629;28;8878;-79
2023/08/19 00:29:50;;;;;;;;;15.00;15.00;;;;;;;;5029477;28;8990;-81
2023/08/19 00:32:17;;;;;;;;;9.40;9.40;;;;;;;;5028160;28;9623;-82
2023/08/19 00:34:44;;;;;;;;;14.20;12.60;;;;;;;;5029304;28;8910;-84
2023/08/19 00:37:13;;;;;;;;;12.60;12.00;;;;;;;;5028460;28;8935;-79
2023/08/19 00:39:40;;;;;;;;;13.00;12.20;;;;;;;;5029227;28;8877;-80
2023/08/19 00:42:08;;;;;;;;;11.00;11.00;;;;;;;;5027441;28;9652;-80
2023/08/19 00:44:36;;;;;;;;;14.20;12.60;;;;;;;;5028683;28;8962;-79
2023/08/19 00:47:05;;;;;;;;;11.80;11.80;;;;;;;;5028660;28;8906;-79
2023/08/19 00:49:33;;;;;;;;;12.00;12.00;;;;;;;;5028241;28;8955;-79
2023/08/19 00:52:02;;;;;;;;;12.40;11.00;;;;;;;;5029403;28;8863;-78
2023/08/19 00:54:31;;;;;;;;;12.60;12.60;;;;;;;;5029241;28;8864;-78
2023/08/19 00:56:58;;;;;;;;;12.80;12.80;;;;;;;;5029582;28;8864;-79
2023/08/19 00:59:28;;;;;;;;;14.00;14.00;;;;;;;;5027993;28;8860;-79
2023/08/19 01:01:57;;;;;;;;;10.80;10.80;;;;;;;;5027843;28;9468;-78
2023/08/19 01:04:25;;;;;;;;;12.80;12.80;;;;;;;;5028112;28;8852;-79
2023/08/19 01:06:56;;;;;;;;;13.60;12.60;;;;;;;;5027807;28;8872;-79
2023/08/19 01:09:36;;;;;;;;;12.00;12.00;;;;;;;;5028220;28;8898;-79
2023/08/19 01:12:09;;;;;;;;;14.60;12.60;;;;;;;;5028245;28;8868;-79
2023/08/19 01:14:45;;;;;;;;;10.60;9.80;;;;;;;;5027271;28;8872;-78
2023/08/19 01:17:15;;;;;;;;;16.00;12.80;;;;;;;;5027401;28;8877;-79
2023/08/19 01:19:43;;;;;;;;;13.60;12.20;;;;;;;;5028427;28;8970;-78
2023/08/19 01:22:14;;;;;;;;;12.40;12.40;;;;;;;;5027648;28;8967;-79
2023/08/19 01:24:42;;;;;;;;;14.00;13.40;;;;;;;;5028106;28;8987;-78
2023/08/19 01:27:24;;;;;;;;;13.60;13.60;;;;;;;;5027702;28;8864;-79
2023/08/19 01:29:52;;;;;;;;;13.20;13.20;;;;;;;;5028248;28;9274;-79
2023/08/19 01:32:19;;;;;;;;;8.00;8.00;;;;;;;;5027124;28;8931;-84
2023/08/19 01:34:47;;;;;;;;;12.00;12.00;;;;;;;;5028391;28;8886;-82
2023/08/19 01:37:19;;;;;;;;;11.40;9.80;;;;;;;;5027737;28;8849;-79
2023/08/19 01:39:48;;;;;;;;;13.20;13.20;;;;;;;;5028032;28;8852;-80
2023/08/19 01:42:17;;;;;;;;;11.60;11.60;;;;;;;;5027980;28;8874;-79
2023/08/19 01:44:45;;;;;;;;;9.60;9.60;;;;;;;;5027788;28;8946;-79
2023/08/19 01:47:16;;;;;;;;;11.40;11.40;;;;;;;;5017612;28;8882;-82
2023/08/19 01:49:43;;;;;;;;;10.40;10.40;;;;;;;;5029059;28;8875;-80
2023/08/19 01:52:11;;;;;;;;;11.60;11.60;;;;;;;;5031764;28;8856;-81
2023/08/19 01:54:38;;;;;;;;;14.00;14.00;;;;;;;;5033012;28;8848;-80
2023/08/19 01:57:07;;;;;;;;;15.00;13.00;;;;;;;;5033512;28;8902;-79
2023/08/19 01:59:35;;;;;;;;;11.60;11.60;;;;;;;;5032982;28;8840;-79
2023/08/19 02:02:02;;;;;;;;;10.60;10.00;;;;;;;;5030964;28;8851;-78
2023/08/19 02:04:30;;;;;;;;;13.60;13.20;;;;;;;;5027649;28;8915;-79
2023/08/19 02:06:57;;;;;;;;;13.40;13.20;;;;;;;;5027973;28;8976;-82
2023/08/19 02:09:25;;;;;;;;;12.60;10.80;;;;;;;;5026730;28;8860;-79
2023/08/19 02:11:52;;;;;;;;;10.00;10.00;;;;;;;;5027867;28;8867;-79
2023/08/19 02:14:20;;;;;;;;;12.00;12.00;;;;;;;;5027806;28;8848;-79
2023/08/19 02:16:48;;;;;;;;;12.80;12.80;;;;;;;;5031475;28;9761;-78
2023/08/19 02:19:15;;;;;;;;;12.40;12.40;;;;;;;;5030890;28;8852;-78
2023/08/19 02:21:42;;;;;;;;;13.80;13.20;;;;;;;;5031031;28;8868;-79
2023/08/19 02:24:09;;;;;;;;;18.20;15.60;;;;;;;;5029237;28;8884;-80
2023/08/19 02:26:36;;;;;;;;;13.00;13.00;;;;;;;;5031154;28;8876;-81
2023/08/19 02:29:04;;;;;;;;;13.80;13.60;;;;;;;;5033122;28;8867;-80
2023/08/19 02:31:32;;;;;;;;;14.60;13.00;;;;;;;;5032320;28;8835;-80
2023/08/19 02:34:00;;;;;;;;;12.40;12.40;;;;;;;;5032767;28;8857;-79
2023/08/19 02:36:27;;;;;;;;;19.20;15.20;;;;;;;;5027121;28;8914;-81
2023/08/19 02:38:54;;;;;;;;;13.80;13.80;;;;;;;;5026557;28;8856;-83
2023/08/19 02:41:29;;;;;;;;;13.20;13.20;;;;;;;;5030748;28;8860;-80
2023/08/19 02:43:56;;;;;;;;;16.00;14.40;;;;;;;;5031332;28;8840;-80
2023/08/19 02:46:23;;;;;;;;;12.20;11.60;;;;;;;;5031000;28;8912;-80
2023/08/19 02:48:52;;;;;;;;;11.80;11.80;;;;;;;;5030503;28;9915;-80
2023/08/19 02:51:19;;;;;;;;;15.40;15.40;;;;;;;;5030822;28;8872;-80
2023/08/19 02:53:46;;;;;;;;;15.20;14.20;;;;;;;;5031076;28;8856;-79
2023/08/19 02:56:13;;;;;;;;;13.00;13.00;;;;;;;;5019230;28;8853;-81
2023/08/19 02:58:40;;;;;;;;;17.60;17.60;;;;;;;;5018738;28;8886;-79
2023/08/19 03:01:08;;;;;;;;;14.60;14.60;;;;;;;;5029594;28;8819;-78
2023/08/19 03:03:35;;;;;;;;;18.00;15.00;;;;;;;;5030227;28;9638;-80
2023/08/19 03:06:05;;;;;;;;;18.20;17.00;;;;;;;;5030354;28;8879;-79
2023/08/19 03:08:32;;;;;;;;;14.60;14.60;;;;;;;;5030730;28;8898;-81
2023/08/19 03:11:00;;;;;;;;;19.40;16.60;;;;;;;;5030507;28;8872;-80
2023/08/19 03:13:27;;;;;;;;;13.20;13.20;;;;;;;;5030751;28;8942;-81
2023/08/19 03:15:59;;;;;;;;;13.00;12.20;;;;;;;;5030062;28;8965;-81
2023/08/19 03:18:26;;;;;;;;;13.60;13.60;;;;;;;;5030556;28;8964;-79
2023/08/19 03:20:57;;;;;;;;;12.20;12.20;;;;;;;;5030501;28;8860;-79
2023/08/19 03:23:27;;;;;;;;;16.80;16.80;;;;;;;;5031478;28;8859;-82
2023/08/19 03:25:55;;;;;;;;;17.40;17.40;;;;;;;;5033623;28;8886;-79
2023/08/19 03:28:23;;;;;;;;;16.20;16.20;;;;;;;;5035217;28;8894;-83
2023/08/19 03:30:50;;;;;;;;;12.40;12.40;;;;;;;;5034451;28;8816;-82
2023/08/19 03:33:17;;;;;;;;;14.80;14.80;;;;;;;;5035502;28;8895;-81
2023/08/19 03:35:45;;;;;;;;;18.00;18.00;;;;;;;;5035262;28;8996;-80
2023/08/19 03:38:13;;;;;;;;;17.80;17.80;;;;;;;;5029708;28;8990;-79
2023/08/19 03:40:42;;;;;;;;;19.60;18.80;;;;;;;;5029095;28;8843;-80
2023/08/19 03:43:10;;;;;;;;;18.00;16.20;;;;;;;;5029720;28;8864;-81
2023/08/19 03:45:37;;;;;;;;;18.20;17.40;;;;;;;;5029689;28;8863;-79
2023/08/19 03:48:05;;;;;;;;;16.60;15.60;;;;;;;;5025663;28;9179;-78
2023/08/19 03:50:32;;;;;;;;;16.40;15.00;;;;;;;;5028695;28;8874;-80
2023/08/19 03:52:59;;;;;;;;;17.60;17.60;;;;;;;;5028955;28;8857;-78
2023/08/19 03:55:27;;;;;;;;;15.20;15.20;;;;;;;;5028213;28;8982;-79
2023/08/19 03:57:55;;;;;;;;;17.00;15.00;;;;;;;;5028518;28;8868;-84
2023/08/19 04:00:23;;;;;;;;;20.00;17.00;;;;;;;;5016734;28;8866;-79
2023/08/19 04:02:50;;;;;;;;;20.40;17.80;;;;;;;;5030219;28;8860;-79
2023/08/19 04:05:17;;;;;;;;;15.80;15.00;;;;;;;;5030632;28;8890;-79
2023/08/19 04:07:44;;;;;;;;;16.20;16.20;;;;;;;;5030036;28;8876;-80
2023/08/19 04:10:12;;;;;;;;;20.80;20.40;;;;;;;;5028686;28;8856;-79
2023/08/19 04:12:39;;;;;;;;;17.40;16.00;;;;;;;;5028304;28;8844;-80
2023/08/19 04:15:10;;;;;;;;;14.80;13.80;;;;;;;;5028345;28;8845;-80
2023/08/19 04:17:37;;;;;;;;;16.40;16.40;;;;;;;;5027971;28;8860;-81
2023/08/19 04:20:08;;;;;;;;;17.20;17.20;;;;;;;;5028490;28;8894;-80
2023/08/19 04:22:36;;;;;;;;;15.60;15.60;;;;;;;;5028329;28;9638;-80
2023/08/19 04:25:06;;;;;;;;;16.40;15.20;;;;;;;;5028551;28;8873;-82
2023/08/19 04:27:33;;;;;;;;;14.20;13.40;;;;;;;;5028824;28;8856;-79
2023/08/19 04:30:01;;;;;;;;;19.20;19.20;;;;;;;;5028699;28;8868;-81
2023/08/19 04:32:29;;;;;;;;;14.40;14.40;;;;;;;;5027643;28;8820;-80
2023/08/19 04:34:56;;;;;;;;;13.00;12.00;;;;;;;;5027690;28;8887;-81
2023/08/19 04:37:23;;;;;;;;;14.40;13.00;;;;;;;;5027292;28;9681;-81
2023/08/19 04:39:52;;;;;;;;;12.20;12.20;;;;;;;;5017707;28;8851;-81
2023/08/19 04:42:20;;;;;;;;;12.60;11.60;;;;;;;;5027229;28;8859;-80
2023/08/19 04:44:47;;;;;;;;;14.80;13.40;;;;;;;;5028747;28;8854;-82
2023/08/19 04:47:14;;;;;;;;;13.00;9.60;;;;;;;;5027593;28;8867;-82
2023/08/19 04:49:43;;;;;;;;;15.20;14.00;;;;;;;;5028166;28;8868;-80
2023/08/19 04:52:11;;;;;;;;;11.00;11.00;;;;;;;;5026620;28;8870;-80
2023/08/19 04:54:38;;;;;;;;;12.40;12.40;;;;;;;;5028341;28;8848;-81
2023/08/19 04:57:05;;;;;;;;;11.20;11.20;;;;;;;;5029359;28;9022;-78
2023/08/19 04:59:33;;;;;;;;;11.20;11.20;;;;;;;;5032310;28;9014;-81
2023/08/19 05:02:00;;;;;;;;;10.20;10.00;;;;;;;;5032522;28;8832;-82
2023/08/19 05:04:27;;;;;;;;;10.80;10.80;;;;;;;;5031885;28;8986;-75
2023/08/19 05:06:56;;;;;;;;;10.60;10.60;;;;;;;;5033306;28;8892;-76
2023/08/19 05:09:23;;;;;;;;;9.80;9.00;;;;;;;;5031756;28;9614;-74
2023/08/19 05:11:50;;;;;;;;;14.40;11.60;;;;;;;;5027037;28;8864;-73
2023/08/19 05:14:20;;;;;;;;;10.00;8.40;;;;;;;;5027290;28;8906;-73
2023/08/19 05:16:47;;;;;;;;;11.60;11.60;;;;;;;;5026929;28;8868;-74
2023/08/19 05:19:18;;;;;;;;;11.40;10.00;;;;;;;;5027127;28;8860;-74
2023/08/19 05:21:46;;;;;;;;;9.80;9.80;;;;;;;;5027309;28;8852;-72
2023/08/19 05:24:15;;;;;;;;;12.40;12.40;;;;;;;;5026799;28;8864;-73
2023/08/19 05:26:44;;;;;;;;;10.60;10.60;;;;;;;;5021937;28;8829;-74
2023/08/19 05:29:11;;;;;;;;;10.20;10.20;;;;;;;;5026727;28;8922;-75
2023/08/19 05:31:39;;;;;;;;;11.00;10.80;;;;;;;;5026530;28;8842;-74
2023/08/19 05:34:08;;;;;;;;;8.20;8.20;;;;;;;;5026930;28;8886;-73
2023/08/19 05:36:36;;;;;;;;;9.60;8.40;;;;;;;;5027181;28;8852;-73
2023/08/19 05:39:03;;;;;;;;;10.20;10.20;;;;;;;;5026744;28;9769;-76
2023/08/19 05:41:32;;;;;;;;;9.20;8.00;;;;;;;;5027330;28;8884;-73
2023/08/19 05:43:59;;;;;;;;;10.40;10.00;;;;;;;;5026230;28;8872;-74
2023/08/19 05:46:26;;;;;;;;;9.20;9.20;;;;;;;;5027289;28;8862;-74
2023/08/19 05:48:53;;;;;;;;;11.00;11.00;;;;;;;;5026447;28;8892;-75
2023/08/19 05:51:21;;;;;;;;;10.20;9.40;;;;;;;;5031000;28;8851;-73
2023/08/19 05:53:48;;;;;;;;;8.80;8.80;;;;;;;;5030148;28;8870;-75
2023/08/19 05:56:15;;;;;;;;;10.40;9.80;;;;;;;;5029224;28;8890;-76
2023/08/19 05:58:43;;;;;;;;;11.20;9.80;;;;;;;;5029260;28;8902;-73
2023/08/19 06:01:10;;;;;;;;;8.80;8.00;;;;;;;;5029112;28;8799;-74
2023/08/19 06:03:38;;;;;;;;;10.00;8.40;;;;;;;;5029446;28;8882;-75
2023/08/19 06:06:06;;;;;;;;;11.40;10.40;;;;;;;;5029107;28;8856;-76
2023/08/19 06:08:40;;;;;;;;;10.80;8.40;;;;;;;;5029823;28;8860;-76
2023/08/19 06:11:08;;;;;;;;;9.60;8.00;;;;;;;;5028829;28;9437;-78
2023/08/19 06:13:36;;;;;;;;;7.20;7.20;;;;;;;;5030094;28;8889;-80
2023/08/19 06:16:05;;;;;;;;;9.60;9.20;;;;;;;;5029175;28;8856;-78
2023/08/19 06:18:36;;;;;;;;;8.60;6.60;;;;;;;;5029941;28;9742;-79
2023/08/19 06:21:04;;;;;;;;;8.40;8.00;;;;;;;;5029116;28;9687;-77
2023/08/19 06:23:32;;;;;;;;;6.40;6.40;;;;;;;;5029521;28;8866;-79
2023/08/19 06:25:59;;;;;;;;;6.80;6.80;;;;;;;;5029510;28;8966;-81
2023/08/19 06:28:26;;;;;;;;;5.80;5.80;;;;;;;;5030296;28;8860;-79
2023/08/19 06:30:54;;;;;;;;;8.80;5.40;;;;;;;;5030096;28;8854;-75
2023/08/19 06:33:23;;;;;;;;;5.60;5.60;;;;;;;;5033511;28;8837;-76
2023/08/19 06:35:51;;;;;;;;;4.60;4.60;;;;;;;;5033317;28;8862;-76
2023/08/19 06:38:21;;;;;;;;;5.00;5.00;;;;;;;;5033810;28;8872;-77
2023/08/19 06:40:56;;;;;;;;;6.20;6.20;;;;;;;;5034484;28;8899;-77
2023/08/19 06:43:26;;;;;;;;;6.20;4.20;;;;;;;;5030418;28;8848;-78
2023/08/19 06:45:54;;;;;;;;;4.40;4.40;;;;;;;;5021952;28;9690;-76
2023/08/19 06:48:24;;;;;;;;;3.60;3.60;;;;;;;;5024848;28;8877;-75
2023/08/19 06:50:52;;;;;;;;;5.00;4.60;;;;;;;;5029481;28;8883;-75
2023/08/19 06:53:20;;;;;;;;;4.75;3.00;;;;;;;;4990887;28;1095016;-75
2023/08/19 06:56:05;;;;;;;;;4.60;4.60;;;;;;;;5030001;28;8856;-74
2023/08/19 06:58:39;;;;;;;;;4.00;4.00;;;;;;;;5029654;28;8869;-78
2023/08/19 07:01:11;;;;;;;;;5.00;3.80;;;;;;;;5029027;28;8780;-79
2023/08/19 07:03:41;;;;;;;;;4.00;4.00;;;;;;;;5030020;28;8852;-77
2023/08/19 07:06:09;;;;;;;;;3.20;3.20;;;;;;;;5029446;28;8911;-77
2023/08/19 07:08:40;;;;;;;;;3.20;3.20;;;;;;;;5030413;28;8860;-77
2023/08/19 07:11:08;;;;;;;;;2.80;2.80;;;;;;;;5029512;28;9664;-78
2023/08/19 07:13:36;;;;;;;;;3.40;3.00;;;;;;;;5030090;28;9022;-74
2023/08/19 07:16:04;;;;;;;;;3.00;3.00;;;;;;;;5028847;28;8857;-76
2023/08/19 07:18:38;;;;;;;;;5.20;4.20;;;;;;;;5029546;28;8859;-78
2023/08/19 07:21:10;;;;;;;;;1.80;1.80;;;;;;;;5028995;28;8882;-75
2023/08/19 07:23:39;;;;;;;;;3.00;3.00;;;;;;;;5029846;28;8858;-75
2023/08/19 07:26:07;;;;;;;;;2.60;2.60;;;;;;;;5028577;28;8937;-76
2023/08/19 07:28:35;;;;;;;;;2.60;2.60;;;;;;;;5029011;28;8899;-76
2023/08/19 07:31:03;;;;;;;;;3.00;3.00;;;;;;;;5028046;28;8804;-75
2023/08/19 07:33:31;;;;;;;;;4.80;4.80;;;;;;;;5028998;28;9706;-75
2023/08/19 07:35:58;;;;;;;;;2.00;2.00;;;;;;;;5027892;28;8878;-75
2023/08/19 07:38:26;;;;;;;;;4.20;3.20;;;;;;;;5028775;28;8887;-75
2023/08/19 07:40:59;;;;;;;;;5.20;3.80;;;;;;;;5028918;28;8860;-75
2023/08/19 07:43:26;;;;;;;;;4.00;4.00;;;;;;;;5028888;28;8848;-76
2023/08/19 07:45:54;;;;;;;;;3.60;3.60;;;;;;;;5029056;28;9650;-77
2023/08/19 07:48:21;;;;;;;;;4.60;4.60;;;;;;;;5028572;28;9668;-77
2023/08/19 07:50:48;;;;;;;;;3.80;3.80;;;;;;;;5029392;28;8856;-78
2023/08/19 07:53:18;;;;;;;;;3.00;3.00;;;;;;;;5028983;28;8860;-78
2023/08/19 07:55:47;;;;;;;;;3.40;3.40;;;;;;;;5029137;28;9002;-77
2023/08/19 07:58:14;;;;;;;;;4.40;4.40;;;;;;;;5028519;28;8883;-76
2023/08/19 08:00:42;;;;;;;;;3.40;3.00;;;;;;;;5028448;28;8776;-76
2023/08/19 08:03:09;;;;;;;;;4.40;4.40;;;;;;;;5029411;28;8857;-76
2023/08/19 08:05:36;;;;;;;;;4.40;4.00;;;;;;;;5031342;28;8889;-75
2023/08/19 08:08:04;;;;;;;;;5.20;5.20;;;;;;;;5032849;28;8857;-80
2023/08/19 08:10:31;;;;;;;;;3.20;3.20;;;;;;;;5033076;28;8852;-79
2023/08/19 08:12:59;;;;;;;;;3.20;3.20;;;;;;;;5032106;28;9285;-77
2023/08/19 08:15:27;;;;;;;;;2.00;2.00;;;;;;;;5032561;28;8888;-78
2023/08/19 08:17:54;;;;;;;;;4.00;4.00;;;;;;;;5027973;28;8848;-79
2023/08/19 08:20:21;;;;;;;;;3.80;2.80;;;;;;;;5028254;28;8876;-76
2023/08/19 08:22:48;;;;;;;;;3.00;3.00;;;;;;;;5028149;28;8875;-78
2023/08/19 08:25:15;;;;;;;;;4.00;4.00;;;;;;;;5028118;28;9712;-77
2023/08/19 08:27:42;;;;;;;;;3.00;3.00;;;;;;;;5027688;28;9696;-76
2023/08/19 08:30:14;;;;;;;;;2.80;2.80;;;;;;;;5027666;28;8876;-78
2023/08/19 08:32:41;;;;;;;;;3.60;3.60;;;;;;;;5028122;28;9689;-74
2023/08/19 08:35:09;;;;;;;;;4.20;3.20;;;;;;;;5028147;28;8959;-74
2023/08/19 08:37:36;;;;;;;;;2.40;2.40;;;;;;;;5021305;28;8860;-73
2023/08/19 08:40:04;;;;;;;;;3.00;3.00;;;;;;;;5028347;28;8864;-78
2023/08/19 08:42:31;;;;;;;;;4.20;4.20;;;;;;;;5028222;28;8898;-77
2023/08/19 08:45:00;;;;;;;;;2.60;2.60;;;;;;;;5027917;28;8852;-74
2023/08/19 08:47:29;;;;;;;;;3.20;3.00;;;;;;;;5027842;28;8860;-73
2023/08/19 08:49:58;;;;;;;;;4.00;4.00;;;;;;;;5027862;28;8853;-74
2023/08/19 08:52:26;;;;;;;;;5.00;5.00;;;;;;;;5028039;28;8856;-77
2023/08/19 08:54:53;;;;;;;;;4.00;4.00;;;;;;;;5027717;28;8902;-74
2023/08/19 08:57:20;;;;;;;;;4.00;4.00;;;;;;;;5027901;28;8864;-74
2023/08/19 08:59:48;;;;;;;;;3.80;2.80;;;;;;;;5027362;28;8872;-73
2023/08/19 09:02:16;;;;;;;;;2.00;2.00;;;;;;;;5027229;28;8814;-80
2023/08/19 09:04:45;;;;;;;;;3.60;3.60;;;;;;;;5027330;28;8902;-80
2023/08/19 09:07:17;;;;;;;;;5.80;4.60;;;;;;;;5027584;28;8885;-76
2023/08/19 09:09:46;;;;;;;;;6.00;4.00;;;;;;;;5027406;28;8849;-76
2023/08/19 09:12:14;;;;;;;;;4.60;4.60;;;;;;;;5027453;28;8880;-79
2023/08/19 09:14:43;;;;;;;;;4.00;4.00;;;;;;;;5026945;28;8914;-74
2023/08/19 09:17:12;;;;;;;;;4.00;4.00;;;;;;;;5027188;28;8883;-76
2023/08/19 09:19:39;;;;;;;;;2.00;2.00;;;;;;;;5027718;28;8841;-74
2023/08/19 09:22:19;;;;;;;;;3.00;3.00;;;;;;;;5027844;28;9642;-77
2023/08/19 09:24:46;;;;;;;;;3.80;3.80;;;;;;;;5016850;28;8859;-77
2023/08/19 09:27:15;;;;;;;;;3.00;3.00;;;;;;;;5027262;28;8928;-76
2023/08/19 09:29:49;;;;;;;;;2.40;2.40;;;;;;;;5028015;28;8891;-77
2023/08/19 09:32:16;;;;;;;;;5.80;4.00;;;;;;;;5026642;28;8800;-79
2023/08/19 09:34:43;;;;;;;;;3.00;3.00;;;;;;;;5028502;28;8864;-75
2023/08/19 09:37:16;;;;;;;;;2.80;2.80;;;;;;;;5027966;28;8950;-76
2023/08/19 09:39:43;;;;;;;;;0.20;0.20;;;;;;;;5031458;28;8890;-75
2023/08/19 09:42:10;;;;;;;;;3.00;3.00;;;;;;;;5030839;28;8901;-77
2023/08/19 09:44:41;;;;;;;;;4.00;4.00;;;;;;;;5031961;28;8868;-77
2023/08/19 09:47:08;;;;;;;;;3.20;3.20;;;;;;;;5032193;28;8848;-75
2023/08/19 09:49:38;;;;;;;;;4.00;4.00;;;;;;;;5030104;28;8864;-74
2023/08/19 09:52:05;;;;;;;;;3.00;3.00;;;;;;;;5027066;28;9661;-75
2023/08/19 09:54:36;;;;;;;;;3.60;3.60;;;;;;;;5027059;28;8864;-75
2023/08/19 09:57:04;;;;;;;;;2.80;2.80;;;;;;;;5026827;28;8870;-76
2023/08/19 09:59:31;;;;;;;;;2.00;2.00;;;;;;;;5026966;28;8995;-75
2023/08/19 10:01:58;;;;;;;;;4.80;3.00;;;;;;;;5026231;28;8818;-76
2023/08/19 10:04:25;;;;;;;;;3.00;3.00;;;;;;;;5026537;28;8860;-76
2023/08/19 10:06:53;;;;;;;;;3.00;3.00;;;;;;;;5027057;28;9669;-76
2023/08/19 10:09:24;;;;;;;;;4.60;3.80;;;;;;;;5026794;28;8874;-76
2023/08/19 10:11:55;;;;;;;;;3.60;3.60;;;;;;;;5026934;28;8856;-75
2023/08/19 10:14:27;;;;;;;;;3.80;3.80;;;;;;;;5026685;28;8864;-75
2023/08/19 10:16:56;;;;;;;;;3.20;3.20;;;;;;;;5026593;28;8871;-75
2023/08/19 10:19:24;;;;;;;;;3.20;2.80;;;;;;;;5026539;28;8868;-75
2023/08/19 10:21:52;;;;;;;;;3.00;3.00;;;;;;;;5027016;28;8901;-75
2023/08/19 10:24:21;;;;;;;;;4.00;2.40;;;;;;;;5026078;28;8849;-74
2023/08/19 10:26:48;;;;;;;;;6.00;4.00;;;;;;;;5026774;28;8856;-75
2023/08/19 10:29:17;;;;;;;;;2.00;2.00;;;;;;;;5026200;28;8857;-74
2023/08/19 10:31:44;;;;;;;;;3.80;3.80;;;;;;;;5026042;28;8812;-75
2023/08/19 10:34:12;;;;;;;;;4.20;4.20;;;;;;;;5026249;28;9653;-76
2023/08/19 10:36:40;;;;;;;;;8.00;5.00;;;;;;;;5029239;28;8840;-75
2023/08/19 10:39:16;;;;;;;;;6.20;3.80;;;;;;;;5029553;28;8856;-74
2023/08/19 10:41:43;;;;;;;;;5.00;3.60;;;;;;;;5029997;28;8876;-75
2023/08/19 10:44:12;;;;;;;;;4.60;4.60;;;;;;;;5030175;28;8864;-76
2023/08/19 10:46:42;;;;;;;;;4.00;2.20;;;;;;;;5030187;28;8856;-75
2023/08/19 10:49:14;;;;;;;;;5.20;5.20;;;;;;;;5030782;28;8841;-71
2023/08/19 10:52:05;;;;;;;;;5.80;4.00;;;;;;;;5029962;28;8849;-71
2023/08/19 10:54:35;;;;;;;;;3.80;3.80;;;;;;;;5029817;28;8872;-77
2023/08/19 10:57:10;;;;;;;;;6.00;6.00;;;;;;;;5030062;28;8860;-73
2023/08/19 10:59:38;;;;;;;;;7.00;5.40;;;;;;;;5030280;28;8848;-71
2023/08/19 11:02:08;;;;;;;;;3.00;3.00;;;;;;;;5029419;28;8796;-72
2023/08/19 11:04:37;;;;;;;;;5.20;5.20;;;;;;;;5029213;28;8864;-71
2023/08/19 11:07:07;;;;;;;;;5.20;5.20;;;;;;;;5029964;28;8849;-71
2023/08/19 11:09:34;;;;;;;;;5.40;4.40;;;;;;;;5030571;28;9611;-71
2023/08/19 11:12:01;;;;;;;;;3.20;3.00;;;;;;;;5031660;28;8872;-74
2023/08/19 11:14:28;;;;;;;;;2.00;2.00;;;;;;;;5031380;28;8994;-72
2023/08/19 11:16:57;;;;;;;;;4.00;4.00;;;;;;;;5031587;28;8860;-73
2023/08/19 11:19:26;;;;;;;;;4.60;4.60;;;;;;;;5032707;28;8868;-76
2023/08/19 11:21:53;;;;;;;;;3.60;3.60;;;;;;;;5033556;28;8864;-73
2023/08/19 11:24:20;;;;;;;;;3.80;3.80;;;;;;;;5029317;28;8880;-75
2023/08/19 11:26:48;;;;;;;;;2.40;2.40;;;;;;;;5029354;28;8890;-72
2023/08/19 11:29:16;;;;;;;;;4.00;4.00;;;;;;;;5028807;28;8852;-74
2023/08/19 11:31:45;;;;;;;;;3.80;3.80;;;;;;;;5028955;28;8826;-71
2023/08/19 11:34:13;;;;;;;;;3.00;3.00;;;;;;;;5028677;28;8860;-75
2023/08/19 11:36:45;;;;;;;;;4.00;4.00;;;;;;;;5023401;28;8855;-72
2023/08/19 11:39:12;;;;;;;;;3.80;2.60;;;;;;;;5028802;28;8855;-72
2023/08/19 11:41:40;;;;;;;;;3.00;3.00;;;;;;;;5029616;28;8868;-76
2023/08/19 11:44:08;;;;;;;;;2.60;2.60;;;;;;;;5028854;28;8887;-71
2023/08/19 11:46:36;;;;;;;;;4.00;4.00;;;;;;;;5028055;28;8891;-72
2023/08/19 11:49:06;;;;;;;;;4.80;3.00;;;;;;;;5017377;28;8900;-73
2023/08/19 11:51:33;;;;;;;;;2.60;2.60;;;;;;;;5030011;28;9018;-74
2023/08/19 11:54:05;;;;;;;;;4.00;4.00;;;;;;;;5028699;28;8857;-77
2023/08/19 11:56:47;;;;;;;;;3.80;3.00;;;;;;;;5028885;28;9644;-73
2023/08/19 11:59:14;;;;;;;;;2.00;2.00;;;;;;;;5028663;28;8876;-70
2023/08/19 12:01:44;;;;;;;;;4.40;4.40;;;;;;;;5027724;28;8935;-73
2023/08/19 12:04:12;;;;;;;;;3.60;3.00;;;;;;;;5029084;28;8897;-72
2023/08/19 12:06:39;;;;;;;;;4.00;4.00;;;;;;;;5028557;28;8860;-72
2023/08/19 12:09:09;;;;;;;;;3.60;2.60;;;;;;;;5028762;28;8856;-70
2023/08/19 12:11:36;;;;;;;;;3.00;3.00;;;;;;;;5028377;28;8867;-70
2023/08/19 12:14:04;;;;;;;;;3.00;3.00;;;;;;;;5028934;28;9502;-75
2023/08/19 12:16:31;;;;;;;;;4.00;2.40;;;;;;;;5029189;28;8844;-70
2023/08/19 12:18:58;;;;;;;;;2.40;2.40;;;;;;;;5028007;28;8860;-73
2023/08/19 12:21:26;;;;;;;;;2.60;2.60;;;;;;;;5028677;28;8852;-73
2023/08/19 12:23:54;;;;;;;;;3.40;2.60;;;;;;;;5027926;28;8889;-71
2023/08/19 12:26:22;;;;;;;;;2.00;2.00;;;;;;;;5028582;28;8937;-71
2023/08/19 12:28:49;;;;;;;;;2.20;2.00;;;;;;;;5028517;28;9617;-75
2023/08/19 12:31:17;;;;;;;;;3.00;3.00;;;;;;;;5027468;28;9485;-72
2023/08/19 12:33:45;;;;;;;;;1.60;1.60;;;;;;;;5027774;28;8872;-72
2023/08/19 12:36:12;;;;;;;;;2.80;2.80;;;;;;;;5028676;28;8863;-74
2023/08/19 12:38:39;;;;;;;;;2.00;2.00;;;;;;;;5027984;28;8874;-76
2023/08/19 12:41:06;;;;;;;;;2.00;2.00;;;;;;;;5028230;28;9689;-73
2023/08/19 12:43:35;;;;;;;;;1.80;1.80;;;;;;;;5029055;28;8866;-74
2023/08/19 12:46:03;;;;;;;;;1.00;1.00;;;;;;;;5031320;28;8872;-73
2023/08/19 12:48:30;;;;;;;;;1.20;1.20;;;;;;;;5030924;28;8879;-72
2023/08/19 12:50:57;;;;;;;;;1.00;1.00;;;;;;;;5031276;28;8874;-74
2023/08/19 12:53:24;;;;;;;;;2.20;1.60;;;;;;;;5029067;28;8855;-73
2023/08/19 12:55:51;;;;;;;;;2.40;1.00;;;;;;;;5021225;28;8852;-72
2023/08/19 12:58:19;;;;;;;;;1.00;1.00;;;;;;;;5027416;28;8880;-72
2023/08/19 13:00:47;;;;;;;;;1.00;1.00;;;;;;;;5027610;28;8806;-72
2023/08/19 13:03:15;;;;;;;;;1.00;1.00;;;;;;;;5027211;28;8872;-72
2023/08/19 13:05:42;;;;;;;;;2.00;2.00;;;;;;;;5028061;28;8908;-72
2023/08/19 13:08:10;;;;;;;;;1.00;1.00;;;;;;;;5026508;28;8872;-73
2023/08/19 13:10:38;;;;;;;;;2.60;2.60;;;;;;;;5027802;28;8872;-72
2023/08/19 13:13:05;;;;;;;;;2.00;2.00;;;;;;;;5026894;28;8878;-72
2023/08/19 13:15:33;;;;;;;;;2.00;2.00;;;;;;;;5027647;28;8864;-73
2023/08/19 13:18:01;;;;;;;;;2.00;1.60;;;;;;;;5026725;28;8856;-72
2023/08/19 13:20:29;;;;;;;;;2.00;2.00;;;;;;;;5027443;28;8872;-71
2023/08/19 13:22:56;;;;;;;;;2.80;2.80;;;;;;;;5026870;28;9722;-73
2023/08/19 13:25:23;;;;;;;;;1.40;1.40;;;;;;;;5027134;28;9638;-73
2023/08/19 13:27:50;;;;;;;;;2.80;2.80;;;;;;;;5027030;28;8840;-71
2023/08/19 13:30:17;;;;;;;;;4.00;4.00;;;;;;;;5026312;28;8886;-71
2023/08/19 13:32:44;;;;;;;;;3.00;3.00;;;;;;;;5026779;28;8868;-71
2023/08/19 13:35:14;;;;;;;;;4.00;4.00;;;;;;;;5026994;28;8871;-72
2023/08/19 13:37:41;;;;;;;;;5.80;4.00;;;;;;;;5021789;28;8852;-71
2023/08/19 13:40:09;;;;;;;;;6.00;4.20;;;;;;;;5026474;28;8848;-71
2023/08/19 13:42:37;;;;;;;;;4.00;4.00;;;;;;;;5027035;28;9688;-72
2023/08/19 13:45:07;;;;;;;;;3.60;3.60;;;;;;;;5026332;28;8864;-71
2023/08/19 13:47:34;;;;;;;;;3.00;3.00;;;;;;;;5026963;28;9631;-73
2023/08/19 13:50:01;;;;;;;;;5.80;4.00;;;;;;;;5026133;28;8860;-71
2023/08/19 13:52:46;;;;;;;;;3.00;2.60;;;;;;;;5027109;28;8878;-72
2023/08/19 13:55:14;;;;;;;;;3.00;3.00;;;;;;;;5026554;28;8856;-72
2023/08/19 13:57:42;;;;;;;;;1.40;1.40;;;;;;;;5027471;28;8848;-71
2023/08/19 14:00:11;;;;;;;;;3.00;3.00;;;;;;;;5025978;28;9669;-71
2023/08/19 14:02:40;;;;;;;;;3.00;3.00;;;;;;;;5027184;28;8868;-72
2023/08/19 14:05:09;;;;;;;;;3.80;3.80;;;;;;;;5026344;28;8884;-71
2023/08/19 14:07:36;;;;;;;;;2.00;2.00;;;;;;;;5026534;28;8884;-71
2023/08/19 14:10:06;;;;;;;;;4.20;3.80;;;;;;;;5026546;28;8844;-73
2023/08/19 14:12:33;;;;;;;;;5.80;4.20;;;;;;;;5030809;28;8848;-72
2023/08/19 14:15:00;;;;;;;;;3.80;3.80;;;;;;;;5030838;28;8874;-75
2023/08/19 14:17:28;;;;;;;;;5.00;5.00;;;;;;;;5031143;28;8879;-72
2023/08/19 14:19:55;;;;;;;;;7.60;5.20;;;;;;;;5021748;28;8848;-73
2023/08/19 14:22:22;;;;;;;;;3.80;3.80;;;;;;;;5033109;28;8883;-74
2023/08/19 14:24:49;;;;;;;;;3.60;3.60;;;;;;;;5034030;28;8870;-74
2023/08/19 14:27:18;;;;;;;;;3.60;3.60;;;;;;;;5031410;28;8916;-72
2023/08/19 14:29:45;;;;;;;;;4.20;4.20;;;;;;;;5031156;28;8987;-73
2023/08/19 14:32:12;;;;;;;;;3.60;3.60;;;;;;;;5029337;28;8825;-72
2023/08/19 14:34:39;;;;;;;;;3.60;2.40;;;;;;;;5030524;28;8872;-72
2023/08/19 14:37:06;;;;;;;;;3.60;3.60;;;;;;;;5029466;28;9748;-73
2023/08/19 14:39:34;;;;;;;;;4.60;4.60;;;;;;;;5030175;28;9670;-72
2023/08/19 14:42:33;;;;;;;;;3.00;3.00;;;;;;;;5029734;28;8899;-74
2023/08/19 14:45:04;;;;;;;;;3.20;3.20;;;;;;;;5026416;28;8864;-74
2023/08/19 14:47:31;;;;;;;;;2.60;2.60;;;;;;;;5030069;28;8966;-75
2023/08/19 14:49:58;;;;;;;;;2.00;2.00;;;;;;;;5029346;28;8871;-73
2023/08/19 14:52:26;;;;;;;;;2.80;2.00;;;;;;;;5030352;28;8916;-74